createdAt,value
2023-03-13T00:01:35.055Z,13.77
2023-03-13T00:04:02.739Z,14.40
2023-03-13T00:06:40.565Z,19.00
2023-03-13T00:09:11.538Z,18.77
2023-03-13T00:11:38.489Z,16.83
2023-03-13T00:14:07.021Z,11.90
2023-03-13T00:16:37.559Z,16.13
2023-03-13T00:19:06.981Z,10.63
2023-03-13T00:21:34.560Z,12.93
2023-03-13T00:24:01.824Z,14.77
2023-03-13T00:26:32.266Z,9.97
2023-03-13T00:29:02.386Z,16.00
2023-03-13T00:31:35.470Z,12.77
2023-03-13T00:34:04.225Z,12.27
2023-03-13T00:36:36.094Z,12.97
2023-03-13T00:39:06.298Z,11.93
2023-03-13T00:41:35.950Z,14.10
2023-03-13T00:44:06.192Z,8.07
2023-03-13T00:46:33.189Z,10.27
2023-03-13T00:49:00.115Z,11.80
2023-03-13T00:51:28.317Z,11.40
2023-03-13T00:54:03.877Z,13.60
2023-03-13T00:56:30.675Z,8.60
2023-03-13T00:58:59.212Z,9.67
2023-03-13T01:01:32.855Z,12.60
2023-03-13T01:04:07.722Z,17.67
2023-03-13T01:06:44.725Z,13.10
2023-03-13T01:09:15.653Z,11.67
2023-03-13T01:11:44.971Z,12.70
2023-03-13T01:14:20.469Z,9.97
2023-03-13T01:16:47.505Z,12.17
2023-03-13T01:19:17.986Z,10.70
2023-03-13T01:21:45.784Z,14.00
2023-03-13T01:24:13.045Z,12.57
2023-03-13T01:26:40.096Z,8.37
2023-03-13T01:29:06.864Z,14.40
2023-03-13T01:31:38.221Z,9.97
2023-03-13T01:34:06.701Z,9.53
2023-03-13T01:36:36.694Z,8.93
2023-03-13T01:39:04.933Z,8.17
2023-03-13T01:41:35.052Z,5.90
2023-03-13T01:44:01.878Z,9.37
2023-03-13T01:46:30.422Z,8.07
2023-03-13T01:49:33.222Z,13.70
2023-03-13T01:52:05.880Z,6.90
2023-03-13T01:54:51.767Z,6.80
2023-03-13T01:57:25.609Z,9.30
2023-03-13T02:00:26.736Z,6.30
2023-03-13T02:03:07.092Z,10.17
2023-03-13T02:05:35.330Z,8.97
2023-03-13T02:08:10.252Z,6.90
2023-03-13T02:10:58.682Z,10.77
2023-03-13T02:13:26.267Z,11.00
2023-03-13T02:15:55.481Z,6.77
2023-03-13T02:18:22.501Z,7.60
2023-03-13T02:20:55.275Z,9.13
2023-03-13T02:23:47.157Z,6.70
2023-03-13T02:26:19.870Z,4.97
2023-03-13T02:28:47.649Z,7.53
2023-03-13T02:31:14.529Z,6.67
2023-03-13T02:33:47.519Z,7.70
2023-03-13T02:36:17.734Z,7.50
2023-03-13T02:38:55.100Z,9.50
2023-03-13T02:41:24.534Z,6.87
2023-03-13T02:43:51.334Z,8.27
2023-03-13T02:46:21.283Z,9.27
2023-03-13T02:48:52.775Z,8.60
2023-03-13T02:51:31.236Z,8.70
2023-03-13T02:54:10.452Z,8.30
2023-03-13T02:56:41.892Z,9.68
2023-03-13T02:59:08.661Z,15.93
2023-03-13T03:01:35.431Z,6.03
2023-03-13T03:04:02.172Z,10.97
2023-03-13T03:06:28.968Z,7.13
2023-03-13T03:08:58.865Z,5.60
2023-03-13T03:11:25.619Z,9.23
2023-03-13T03:13:52.354Z,7.67
2023-03-13T03:16:19.171Z,7.43
2023-03-13T03:18:46.142Z,8.45
2023-03-13T03:21:13.534Z,8.68
2023-03-13T03:23:40.321Z,7.43
2023-03-13T03:26:07.862Z,5.80
2023-03-13T03:28:37.674Z,8.23
2023-03-13T03:31:13.824Z,6.35
2023-03-13T03:33:46.622Z,5.68
2023-03-13T03:36:20.846Z,5.93
2023-03-13T03:38:48.527Z,4.95
2023-03-13T03:41:19.329Z,7.30
2023-03-13T03:43:47.524Z,7.13
2023-03-13T03:46:17.890Z,7.22
2023-03-13T03:48:46.833Z,5.65
2023-03-13T03:51:13.694Z,8.70
2023-03-13T03:53:40.621Z,5.25
2023-03-13T03:56:09.056Z,6.22
2023-03-13T03:58:37.883Z,7.00
2023-03-13T04:01:05.244Z,8.38
2023-03-13T04:03:32.692Z,8.25
2023-03-13T04:05:59.533Z,10.40
2023-03-13T04:08:26.581Z,7.18
2023-03-13T04:10:53.404Z,6.82
2023-03-13T04:13:20.206Z,8.52
2023-03-13T04:15:48.760Z,4.85
2023-03-13T04:18:21.649Z,5.05
2023-03-13T04:20:48.411Z,8.32
2023-03-13T04:23:15.161Z,5.28
2023-03-13T04:25:42.008Z,6.95
2023-03-13T04:28:09.293Z,7.63
2023-03-13T04:30:36.110Z,5.53
2023-03-13T04:33:02.985Z,8.40
2023-03-13T04:35:29.895Z,5.28
2023-03-13T04:37:56.655Z,4.97
2023-03-13T04:40:23.448Z,6.35
2023-03-13T04:42:50.170Z,6.85
2023-03-13T04:45:16.956Z,5.15
2023-03-13T04:47:43.683Z,6.72
2023-03-13T04:50:10.844Z,9.27
2023-03-13T04:52:37.691Z,11.30
2023-03-13T04:55:06.628Z,10.43
2023-03-13T04:57:33.389Z,7.78
2023-03-13T05:00:00.191Z,5.47
2023-03-13T05:02:27.057Z,5.53
2023-03-13T05:04:56.495Z,5.50
2023-03-13T05:07:23.215Z,4.57
2023-03-13T05:09:49.959Z,7.68
2023-03-13T05:12:28.745Z,6.40
2023-03-13T05:14:55.598Z,6.80
2023-03-13T05:17:22.368Z,8.23
2023-03-13T05:19:49.175Z,8.68
2023-03-13T05:22:15.882Z,5.93
2023-03-13T05:24:43.721Z,4.63
2023-03-13T05:27:13.381Z,7.82
2023-03-13T05:29:40.193Z,7.13
2023-03-13T05:32:12.973Z,5.63
2023-03-13T05:34:46.848Z,6.43
2023-03-13T05:37:13.812Z,7.80
2023-03-13T05:39:43.852Z,6.82
2023-03-13T05:42:10.611Z,7.68
2023-03-13T05:44:40.254Z,4.32
2023-03-13T05:47:07.127Z,7.57
2023-03-13T05:49:33.913Z,4.78
2023-03-13T05:52:03.068Z,7.15
2023-03-13T05:54:32.909Z,6.57
2023-03-13T05:56:59.647Z,6.15
2023-03-13T05:59:29.483Z,7.45
2023-03-13T06:01:56.266Z,8.63
2023-03-13T06:04:23.177Z,6.15
2023-03-13T06:06:49.973Z,5.97
2023-03-13T06:09:16.778Z,7.22
2023-03-13T06:11:45.534Z,5.15
2023-03-13T06:14:12.416Z,5.80
2023-03-13T06:16:39.290Z,7.63
2023-03-13T06:19:06.105Z,4.45
2023-03-13T06:21:35.951Z,8.90
2023-03-13T06:24:02.797Z,6.55
2023-03-13T06:26:32.438Z,5.95
2023-03-13T06:28:59.281Z,5.88
2023-03-13T06:31:32.540Z,5.95
2023-03-13T06:33:59.396Z,6.82
2023-03-13T06:36:26.467Z,4.97
2023-03-13T06:38:53.242Z,4.70
2023-03-13T06:41:20.082Z,9.82
2023-03-13T06:43:46.849Z,8.85
2023-03-13T06:46:20.474Z,6.45
2023-03-13T06:48:47.470Z,5.85
2023-03-13T06:51:21.863Z,3.03
2023-03-13T06:53:52.451Z,6.18
2023-03-13T06:56:22.484Z,7.90
2023-03-13T06:58:50.050Z,5.50
2023-03-13T07:01:20.056Z,4.18
2023-03-13T07:03:49.047Z,5.18
2023-03-13T07:06:21.980Z,4.93
2023-03-13T07:08:51.737Z,7.13
2023-03-13T07:11:18.924Z,7.45
2023-03-13T07:13:45.680Z,5.68
2023-03-13T07:16:16.425Z,8.43
2023-03-13T07:18:44.700Z,6.10
2023-03-13T07:21:11.968Z,4.85
2023-03-13T07:23:39.250Z,6.15
2023-03-13T07:26:14.954Z,7.75
2023-03-13T07:28:42.756Z,9.82
2023-03-13T07:31:15.434Z,4.47
2023-03-13T07:33:45.486Z,3.95
2023-03-13T07:36:15.008Z,4.07
2023-03-13T07:38:43.803Z,5.50
2023-03-13T07:41:13.632Z,6.75
2023-03-13T07:43:41.204Z,7.45
2023-03-13T07:46:12.625Z,4.20
2023-03-13T07:48:42.476Z,4.90
2023-03-13T07:51:33.357Z,12.18
2023-03-13T07:54:07.840Z,10.10
2023-03-13T07:56:34.579Z,11.70
2023-03-13T07:59:01.396Z,6.78
2023-03-13T08:01:31.572Z,6.50
2023-03-13T08:04:01.618Z,4.95
2023-03-13T08:06:33.884Z,5.60
2023-03-13T08:09:18.642Z,10.10
2023-03-13T08:11:45.483Z,6.47
2023-03-13T08:14:12.976Z,6.05
2023-03-13T08:16:39.853Z,7.93
2023-03-13T08:19:10.836Z,6.88
2023-03-13T08:21:38.591Z,5.40
2023-03-13T08:24:14.766Z,4.40
2023-03-13T08:26:42.778Z,5.50
2023-03-13T08:29:13.666Z,5.97
2023-03-13T08:31:52.620Z,4.70
2023-03-13T08:34:20.291Z,4.80
2023-03-13T08:36:50.188Z,3.83
2023-03-13T08:39:19.755Z,3.80
2023-03-13T08:41:47.233Z,4.75
2023-03-13T08:44:17.222Z,3.88
2023-03-13T08:46:47.613Z,5.72
2023-03-13T08:49:14.437Z,5.05
2023-03-13T08:51:41.254Z,3.53
2023-03-13T08:54:08.225Z,4.57
2023-03-13T08:56:37.572Z,9.02
2023-03-13T08:59:06.944Z,8.90
2023-03-13T09:01:36.355Z,4.85
2023-03-13T09:04:05.299Z,4.80
2023-03-13T09:06:34.695Z,6.47
2023-03-13T09:09:06.671Z,4.40
2023-03-13T09:11:46.718Z,7.15
2023-03-13T09:14:13.533Z,6.15
2023-03-13T09:16:40.509Z,8.20
2023-03-13T09:19:07.482Z,7.25
2023-03-13T09:21:35.704Z,8.82
2023-03-13T09:24:02.934Z,8.07
2023-03-13T09:26:30.238Z,3.92
2023-03-13T09:28:57.717Z,3.88
2023-03-13T09:31:33.402Z,7.72
2023-03-13T09:34:01.252Z,5.72
2023-03-13T09:36:30.626Z,5.32
2023-03-13T09:38:59.773Z,4.43
2023-03-13T09:42:20.438Z,6.03
2023-03-13T09:45:04.018Z,2.50
2023-03-13T09:47:44.485Z,3.83
2023-03-13T09:50:27.601Z,7.70
2023-03-13T09:53:03.385Z,6.15
2023-03-13T09:55:36.635Z,5.43
2023-03-13T09:58:12.220Z,4.00
2023-03-13T10:00:41.621Z,5.68
2023-03-13T10:03:11.483Z,6.05
2023-03-13T10:05:46.800Z,5.53
2023-03-13T10:08:19.511Z,2.75
2023-03-13T10:11:11.121Z,6.85
2023-03-13T10:14:11.158Z,7.55
2023-03-13T10:17:23.383Z,2.47
2023-03-13T10:20:01.062Z,3.17
2023-03-13T10:22:31.646Z,3.35
2023-03-13T10:25:16.127Z,2.50
2023-03-13T10:27:53.732Z,3.85
2023-03-13T10:30:28.183Z,2.63
2023-03-13T10:33:25.250Z,3.00
2023-03-13T10:36:08.646Z,5.40
2023-03-13T10:38:52.348Z,5.85
2023-03-13T10:41:33.463Z,5.55
2023-03-13T10:44:08.545Z,5.97
2023-03-13T10:46:45.869Z,1.80
2023-03-13T10:49:19.901Z,2.42
2023-03-13T10:51:56.906Z,3.20
2023-03-13T10:54:37.460Z,4.80
2023-03-13T10:57:19.395Z,4.55
2023-03-13T10:59:49.740Z,3.55
2023-03-13T11:02:33.105Z,3.70
2023-03-13T11:05:00.105Z,4.25
2023-03-13T11:07:38.132Z,5.93
2023-03-13T11:10:13.955Z,4.50
2023-03-13T11:12:48.504Z,5.05
2023-03-13T11:15:35.301Z,5.40
2023-03-13T11:18:31.374Z,4.78
2023-03-13T11:21:12.176Z,4.95
2023-03-13T11:23:58.016Z,6.55
2023-03-13T11:26:52.431Z,3.45
2023-03-13T11:29:49.129Z,9.63
2023-03-13T11:32:32.258Z,4.43
2023-03-13T11:35:06.890Z,4.22
2023-03-13T11:37:40.618Z,6.22
2023-03-13T11:40:53.932Z,3.60
2023-03-13T11:44:02.041Z,5.88
2023-03-13T11:47:17.745Z,5.75
2023-03-13T11:50:22.171Z,3.45
2023-03-13T11:53:14.065Z,2.83
2023-03-13T11:56:21.827Z,3.83
2023-03-13T11:59:07.496Z,3.67
2023-03-13T12:01:46.491Z,3.80
2023-03-13T12:04:36.764Z,3.05
2023-03-13T12:07:29.164Z,2.33
2023-03-13T12:10:00.160Z,6.15
2023-03-13T12:13:10.252Z,5.65
2023-03-13T12:15:58.596Z,12.55
2023-03-13T12:18:45.864Z,6.15
2023-03-13T12:21:48.153Z,6.88
2023-03-13T12:24:40.483Z,8.05
2023-03-13T12:27:50.903Z,3.70
2023-03-13T12:30:48.715Z,13.73
2023-03-13T12:33:46.599Z,4.35
2023-03-13T12:36:43.674Z,6.70
2023-03-13T12:39:59.124Z,8.93
2023-03-13T12:43:00.623Z,3.85
2023-03-13T12:45:29.378Z,4.45
2023-03-13T12:48:41.515Z,5.35
2023-03-13T12:51:42.545Z,5.30
2023-03-13T12:54:50.246Z,7.57
2023-03-13T12:57:37.180Z,8.18
2023-03-13T13:00:16.418Z,7.85
2023-03-13T13:02:43.436Z,7.20
2023-03-13T13:05:23.271Z,7.43
2023-03-13T13:07:57.110Z,8.02
2023-03-13T13:10:27.461Z,8.85
2023-03-13T13:13:14.467Z,7.80
2023-03-13T13:16:19.616Z,6.97
2023-03-13T13:18:46.452Z,7.78
2023-03-13T13:21:16.446Z,9.02
2023-03-13T13:23:49.948Z,10.25
2023-03-13T13:26:29.611Z,12.57
2023-03-13T13:29:11.690Z,7.50
2023-03-13T13:31:58.832Z,12.50
2023-03-13T13:34:30.978Z,7.63
2023-03-13T13:37:20.241Z,11.70
2023-03-13T13:40:11.600Z,14.18
2023-03-13T13:42:46.909Z,9.05
2023-03-13T13:45:16.402Z,13.18
2023-03-13T13:47:47.845Z,8.13
2023-03-13T13:50:28.444Z,10.73
2023-03-13T13:53:34.673Z,10.85
2023-03-13T13:56:10.149Z,9.40
2023-03-13T13:58:44.004Z,7.88
2023-03-13T14:01:16.964Z,15.20
2023-03-13T14:03:44.490Z,11.88
2023-03-13T14:06:35.093Z,13.65
2023-03-13T14:09:48.414Z,13.25
2023-03-13T14:12:38.086Z,11.35
2023-03-13T14:15:22.396Z,13.05
2023-03-13T14:18:00.524Z,13.80
2023-03-13T14:20:52.926Z,12.13
2023-03-13T14:23:42.720Z,9.35
2023-03-13T14:26:17.683Z,11.23
2023-03-13T14:28:49.843Z,11.63
2023-03-13T14:31:33.440Z,9.75
2023-03-13T14:34:07.422Z,10.15
2023-03-13T14:36:57.147Z,13.35
2023-03-13T14:39:31.384Z,12.68
2023-03-13T14:42:05.892Z,14.68
2023-03-13T14:44:34.969Z,15.75
2023-03-13T14:47:09.197Z,13.45
2023-03-13T14:49:37.584Z,13.90
2023-03-13T14:52:24.594Z,8.55
2023-03-13T14:55:08.914Z,9.93
2023-03-13T14:57:36.876Z,12.30
2023-03-13T15:00:35.132Z,11.68
2023-03-13T15:03:17.274Z,16.63
2023-03-13T15:05:48.387Z,10.32
2023-03-13T15:08:22.395Z,18.45
2023-03-13T15:10:50.598Z,20.30
2023-03-13T15:13:31.757Z,10.43
2023-03-13T15:15:59.638Z,15.57
2023-03-13T15:18:30.857Z,15.23
2023-03-13T15:21:12.860Z,13.55
2023-03-13T15:23:49.836Z,12.52
2023-03-13T15:26:16.691Z,15.30
2023-03-13T15:28:45.893Z,13.95
2023-03-13T15:31:14.763Z,13.80
2023-03-13T15:33:43.681Z,10.60
2023-03-13T15:36:11.874Z,16.05
2023-03-13T15:38:40.102Z,15.57
2023-03-13T15:41:09.159Z,11.45
2023-03-13T15:43:36.331Z,11.38
2023-03-13T15:46:05.654Z,10.43
2023-03-13T15:48:32.654Z,9.02
2023-03-13T15:51:03.867Z,19.83
2023-03-13T15:53:35.780Z,11.88
2023-03-13T15:56:18.473Z,10.35
2023-03-13T15:58:47.519Z,10.30
2023-03-13T16:01:16.753Z,13.27
2023-03-13T16:03:43.742Z,10.27
2023-03-13T16:06:30.713Z,9.45
2023-03-13T16:09:03.236Z,9.32
2023-03-13T16:11:30.228Z,11.50
2023-03-13T16:13:59.395Z,13.35
2023-03-13T16:16:30.193Z,7.05
2023-03-13T16:19:00.881Z,13.57
2023-03-13T16:21:34.503Z,12.27
2023-03-13T16:24:03.754Z,16.80
2023-03-13T16:26:31.951Z,16.13
2023-03-13T16:28:59.551Z,14.80
2023-03-13T16:31:35.375Z,13.30
2023-03-13T16:34:07.929Z,14.35
2023-03-13T16:36:38.811Z,16.77
2023-03-13T16:39:14.770Z,17.15
2023-03-13T16:41:43.998Z,12.50
2023-03-13T16:44:17.427Z,15.23
2023-03-13T16:46:55.624Z,15.52
2023-03-13T16:49:31.051Z,11.77
2023-03-13T16:52:03.029Z,18.30
2023-03-13T16:54:32.826Z,17.20
2023-03-13T16:57:04.277Z,56.70
2023-03-13T16:59:34.040Z,28.50
2023-03-13T17:02:00.871Z,35.70
2023-03-13T17:04:30.895Z,26.55
2023-03-13T17:07:00.671Z,19.55
2023-03-13T17:09:28.856Z,14.88
2023-03-13T17:11:58.374Z,16.38
2023-03-13T17:14:25.122Z,17.27
2023-03-13T17:16:57.934Z,14.82
2023-03-13T17:19:27.380Z,16.77
2023-03-13T17:21:54.097Z,14.50
2023-03-13T17:24:20.904Z,26.55
2023-03-13T17:26:55.385Z,19.88
2023-03-13T17:29:23.634Z,22.38
2023-03-13T17:32:01.492Z,15.85
2023-03-13T17:34:31.115Z,13.65
2023-03-13T17:36:59.591Z,13.55
2023-03-13T17:39:26.314Z,21.20
2023-03-13T17:41:53.129Z,13.52
2023-03-13T17:44:19.931Z,18.13
2023-03-13T17:46:47.790Z,18.42
2023-03-13T17:49:20.246Z,18.42
2023-03-13T17:51:51.575Z,14.95
2023-03-13T17:54:18.848Z,21.15
2023-03-13T17:56:46.029Z,19.42
2023-03-13T17:59:19.456Z,17.67
2023-03-13T18:01:46.537Z,20.20
2023-03-13T18:04:13.489Z,18.67
2023-03-13T18:06:46.804Z,11.68
2023-03-13T18:09:22.076Z,18.33
2023-03-13T18:11:50.283Z,20.67
2023-03-13T18:14:17.098Z,19.55
2023-03-13T18:16:50.533Z,15.55
2023-03-13T18:19:22.688Z,22.38
2023-03-13T18:21:53.621Z,14.30
2023-03-13T18:24:28.560Z,16.52
2023-03-13T18:26:55.315Z,16.08
2023-03-13T18:29:27.924Z,14.50
2023-03-13T18:31:58.628Z,13.60
2023-03-13T18:34:34.027Z,13.93
2023-03-13T18:37:06.460Z,13.27
2023-03-13T18:39:33.518Z,16.88
2023-03-13T18:42:01.074Z,14.57
2023-03-13T18:44:27.840Z,18.58
2023-03-13T18:46:57.006Z,18.08
2023-03-13T18:49:24.704Z,20.23
2023-03-13T18:51:56.029Z,19.83
2023-03-13T18:54:24.864Z,20.33
2023-03-13T18:56:51.656Z,16.38
2023-03-13T18:59:23.498Z,21.10
2023-03-13T19:01:51.138Z,17.02
2023-03-13T19:04:19.266Z,16.08
2023-03-13T19:06:47.799Z,16.77
2023-03-13T19:09:42.272Z,20.63
2023-03-13T19:12:11.907Z,16.25
2023-03-13T19:14:38.865Z,16.90
2023-03-13T19:17:14.438Z,15.30
2023-03-13T19:19:41.259Z,19.45
2023-03-13T19:22:13.421Z,13.15
2023-03-13T19:24:40.717Z,17.35
2023-03-13T19:27:07.597Z,18.80
2023-03-13T19:29:37.521Z,19.95
2023-03-13T19:32:07.130Z,15.30
2023-03-13T19:34:33.928Z,22.70
2023-03-13T19:37:00.684Z,18.33
2023-03-13T19:39:27.594Z,25.77
2023-03-13T19:41:54.784Z,17.77
2023-03-13T19:44:24.777Z,19.80
2023-03-13T19:46:54.603Z,13.57
2023-03-13T19:49:21.587Z,17.02
2023-03-13T19:51:48.760Z,10.70
2023-03-13T19:54:15.992Z,23.52
2023-03-13T19:56:46.913Z,19.85
2023-03-13T19:59:26.781Z,15.80
2023-03-13T20:01:55.766Z,15.10
2023-03-13T20:04:27.255Z,16.52
2023-03-13T20:06:54.006Z,14.95
2023-03-13T20:09:21.403Z,15.75
2023-03-13T20:11:48.208Z,24.40
2023-03-13T20:14:18.476Z,17.77
2023-03-13T20:16:53.286Z,18.55
2023-03-13T20:19:21.395Z,21.02
2023-03-13T20:21:48.095Z,18.08
2023-03-13T20:24:16.970Z,23.30
2023-03-13T20:26:43.710Z,19.48
2023-03-13T20:29:10.414Z,19.63
2023-03-13T20:31:37.330Z,15.77
2023-03-13T20:34:04.057Z,16.00
2023-03-13T20:36:30.836Z,12.05
2023-03-13T20:39:00.803Z,18.13
2023-03-13T20:41:31.182Z,13.95
2023-03-13T20:44:00.194Z,14.15
2023-03-13T20:46:29.090Z,15.75
2023-03-13T20:48:58.452Z,16.88
2023-03-13T20:51:26.050Z,14.88
2023-03-13T20:53:52.755Z,16.70
2023-03-13T20:56:19.574Z,16.80
2023-03-13T20:58:46.404Z,11.13
2023-03-13T21:01:27.603Z,18.95
2023-03-13T21:03:57.332Z,14.85
2023-03-13T21:06:30.160Z,14.02
2023-03-13T21:08:56.969Z,11.32
2023-03-13T21:11:27.112Z,12.35
2023-03-13T21:13:56.866Z,13.95
2023-03-13T21:16:25.733Z,16.60
2023-03-13T21:18:52.799Z,12.38
2023-03-13T21:21:22.340Z,10.45
2023-03-13T21:23:51.988Z,12.68
2023-03-13T21:26:19.687Z,21.70
2023-03-13T21:28:53.947Z,12.10
2023-03-13T21:31:20.859Z,11.55
2023-03-13T21:33:48.847Z,11.38
2023-03-13T21:36:20.784Z,11.88
2023-03-13T21:38:49.666Z,14.57
2023-03-13T21:41:20.754Z,10.52
2023-03-13T21:43:49.037Z,14.18
2023-03-13T21:46:18.294Z,21.90
2023-03-13T21:48:48.279Z,16.30
2023-03-13T21:51:15.881Z,13.57
2023-03-13T21:53:46.671Z,14.85
2023-03-13T21:56:15.520Z,16.20
2023-03-13T21:58:43.764Z,10.75
2023-03-13T22:01:10.945Z,15.48
2023-03-13T22:03:38.021Z,14.63
2023-03-13T22:06:12.298Z,12.05
2023-03-13T22:08:43.019Z,9.65
2023-03-13T22:11:10.359Z,12.38
2023-03-13T22:13:42.473Z,10.95
2023-03-13T22:16:12.141Z,17.55
2023-03-13T22:18:40.646Z,11.52
2023-03-13T22:21:14.933Z,13.15
2023-03-13T22:23:41.682Z,13.25
2023-03-13T22:26:11.463Z,15.02
2023-03-13T22:28:38.927Z,11.93
2023-03-13T22:31:08.293Z,9.98
2023-03-13T22:33:37.152Z,14.35
2023-03-13T22:36:05.360Z,12.15
2023-03-13T22:38:36.077Z,15.38
2023-03-13T22:41:06.929Z,15.45
2023-03-13T22:43:34.163Z,10.63
2023-03-13T22:46:04.374Z,11.20
2023-03-13T22:48:36.178Z,15.32
2023-03-13T22:51:08.829Z,13.70
2023-03-13T22:53:38.171Z,18.48
2023-03-13T22:56:06.341Z,23.27
2023-03-13T22:58:34.263Z,13.02
2023-03-13T23:01:09.586Z,13.57
2023-03-13T23:03:36.478Z,18.77
2023-03-13T23:06:09.031Z,11.98
2023-03-13T23:08:36.402Z,15.25
2023-03-13T23:11:06.769Z,13.75
2023-03-13T23:13:36.819Z,16.52
2023-03-13T23:16:09.371Z,16.25
2023-03-13T23:18:37.374Z,11.98
2023-03-13T23:21:12.210Z,18.38
2023-03-13T23:23:40.393Z,13.50
2023-03-13T23:26:14.247Z,17.58
2023-03-13T23:28:41.362Z,12.43
2023-03-13T23:31:19.941Z,12.65
2023-03-13T23:33:48.230Z,13.60
2023-03-13T23:36:19.320Z,9.32
2023-03-13T23:38:51.200Z,10.57
2023-03-13T23:41:18.504Z,15.60
2023-03-13T23:43:45.301Z,10.43
2023-03-13T23:46:26.232Z,16.30
2023-03-13T23:48:58.401Z,12.75
2023-03-13T23:51:26.287Z,13.90
2023-03-13T23:53:53.295Z,10.65
2023-03-13T23:56:23.101Z,15.33
2023-03-13T23:58:49.820Z,13.93
